L'Annonciation, Canada
Current Conditions -  °F | °C
As of 9:00 AM on Sunday 25 Jan 2015 (Local Time) from CYMX Reporting Station
Blowing Snow Blowing Snow  
Wind Chill: -11°   Ceiling: Unl
Heat Index:   Visibility: 45mi
Dew Point: -9°   Wind: 9mph
Humidity: 56%   Direction: 290°WNW
Pressure: 29.73"   Gusts: 17mph
Location:  46.4°N, 74.87°W
Report Text: CYMX 251400Z 29008G15KT 260V340 45SM DRSN FEW025 M16/M23 A2973 RMK SC1 SC TR SLP075
Loading
Personal Weather Stations






























Interactive Weather Map New forecast layout! Learn more

10-Day Weather Forecast

Advertisements
Track Severe Weather on mobile